KTYSKAVL

Guest
Details From KTYS - Mc Ghee Tyson
To KAVL - Asheville Rgnl
Flight Number -
Tags generated
Created
Modified
Stats Distance 77 nm / 142 km
Max Altitude 0 ft / 0 m
Waypoints 3
Social Downloads 0
Likes 0
Share VATSIM

Download

Looking for another format? Having issues loading an existing format? Contact us
Advertisement - Login to hide

Notes

None

Route

KTYS KNITS KAVL

ID Type Via Altitude Latitude Longitude Leg Dist Tot Dist Heading (true) Name
O KTYS APT - 0 ft / 0 m 35.81098˚ -83.99403˚ - 0 nm - Mc Ghee Tyson
KNITS FIX - 0 ft / 0 m 35.68367˚ -83.89957˚ 8 nm 8 nm 149° / 149° -
O KAVL APT - 0 ft / 0 m 35.43618˚ -82.54181˚ 67 nm 76 nm 102° / 103° Asheville Rgnl

Altitude Profile

Advertisement - Login to hide

KTYS

Details ICAO KTYS (TYS)
Name Mc Ghee Tyson
Region United States
Timezone America/New_York (UTC-5.0)
Stats Elevation 981 ft / 299 m (AMSL)
Location 35.810979° -83.994033°
Runways 2
Magnetic Variation 5.709° W

METAR

KTYS 160853Z 00000KT 9SM CLR M04/M05 A3023 RMK AO2 SLP246 T10391050 51006

Decode

TAF

TAF KTYS 160520Z 1606/1706 20005KT P6SM SCT050 TEMPO 1606/1609 BKN050 FM161500 22007KT P6SM SCT250 FM170100 VRB03KT P6SM SCT150

Decode

Departure Runways

ID Width Length Bearing (true) Bearing (mag) Surface Threshold Offset Overrun Length
05L 151 ft / 46 m 9,007 ft / 2,745 m 44.69° 50.40° Asphalt 0 ft / 0 m 1,001 ft / 305 m
05R 151 ft / 46 m 9,001 ft / 2,744 m 44.67° 50.38° Asphalt 0 ft / 0 m 180 ft / 55 m
23L 151 ft / 46 m 9,001 ft / 2,744 m 224.69° 230.40° Asphalt 420 ft / 128 m 164 ft / 50 m
23R 151 ft / 46 m 9,007 ft / 2,745 m 224.71° 230.42° Asphalt 0 ft / 0 m 968 ft / 295 m

KAVL

Details ICAO KAVL (AVL)
Name Asheville Rgnl
Region United States
Timezone America/New_York (UTC-5.0)
Stats Elevation 2,165 ft / 660 m (AMSL)
Location 35.436182° -82.541812°
Runways 1
Magnetic Variation 6.655° W

METAR

KAVL 160854Z AUTO 33012KT 10SM CLR M02/M07 A3016 RMK AO2 SLP224 T10171072 53010

Decode

TAF

KAVL 160525Z 1606/1706 34011KT P6SM SKC FM161500 33004KT P6SM FEW250 FM161600 32004KT P6SM SKC FM162300 VRB03KT P6SM FEW250

Decode

Destination Runways

ID Width Length Bearing (true) Bearing (mag) Surface Threshold Offset Overrun Length
16 151 ft / 46 m 8,015 ft / 2,443 m 159.91° 166.56° Asphalt 0 ft / 0 m 200 ft / 61 m
34 151 ft / 46 m 8,015 ft / 2,443 m 339.91° 346.56° Asphalt 0 ft / 0 m 200 ft / 61 m

Approach Navaids

Runway Type Ident Frequency Range Bearing (true) Bearing (mag) Slope Elevation
16 Localiser IIMO 110.90 MHz 18 nm / 33 km 159.91° 166.56° - 2,140 ft / 652 m (AMSL)
16 Glidescope IIMO 110.90 MHz 10 nm / 19 km 159.91° 166.56° 3.00° 2,165 ft / 660 m (AMSL)
34 Localiser IAVL 110.50 MHz 18 nm / 33 km 339.91° 346.56° - 2,165 ft / 660 m (AMSL)
34 Glidescope IAVL 110.50 MHz 10 nm / 19 km 339.91° 346.56° 2.80° 2,113 ft / 644 m (AMSL)

Popular Alternatives